Terminal Aerodrome Forecast
Issued by NWS

Home | Current Version | Previous Version | Text Only | Print | Product List | Glossary On
Versions: 1 2 3 4 5 6 7 8 9 10 11 12 13 14 15 16 17 18 19 20 21 22 23 24 25
000
FTAK31 PAFA 251559 AAD
TAFAFA
TAF AMD
PAFA 251559Z 2516/2618 00000KT P6SM -RA BKN050 OVC080
     FM252100 27005KT P6SM -RA BKN025 OVC060
     FM260000 27005KT P6SM -SHRA VCTS BKN035 BKN050CB OVC100
     FM260600 VRB04KT P6SM VCFG SCT005 BKN015 OVC025=

USA.gov is the U.S. government's official web portal to all federal, state and local government web resources and services.